This is the latest recevied weather packets stored in our database for station/object N5WAY-13. If no packets are shown the sender has not sent any weather packets the latest 10 day(s).
| Time | Temp. | Humidity | Pressure | Rain* | Wind** | Luminosity | Snow |
|---|---|---|---|---|---|---|---|
| 1777994715 | 12.22° C | 53% | 1013.5 hPa | 0.25 mm | - | 304 W/m² | - |
| 1777991716 | 12.78° C | 54% | 1013.7 hPa | 0 mm | - | 106 W/m² | - |
| 1777990516 | 12.78° C | 54% | 1013.6 hPa | 0 mm | - | 76 W/m² | - |
| 1777986337 | 13.89° C | 37% | 1012.7 hPa | 0 mm | - | 39 W/m² | - |
| 1777980915 | 14.44° C | 36% | 1012.1 hPa | 0 mm | - | 0 W/m² | - |
| 1777977917 | 14.44° C | 34% | 1012.5 hPa | 0 mm | - | 0 W/m² | - |
| 1777977337 | 14.44° C | 35% | 1012.5 hPa | 0 mm | - | 0 W/m² | - |
| 1777974317 | 15° C | 34% | 1012.2 hPa | 0 mm | - | 0 W/m² | - |
| 1777973118 | 15° C | 32% | 1012.3 hPa | 0 mm | - | 0 W/m² | - |
| 1777971316 | 15.56° C | 33% | 1012.4 hPa | 0 mm | - | 0 W/m² | - |
| 1777967736 | 16.67° C | 31% | 1013 hPa | 0 mm | - | 0 W/m² | - |
| 1777966516 | 16.67° C | 30% | 1012.8 hPa | 0 mm | - | 0 W/m² | - |
| 1777964737 | 17.78° C | 28% | 1012.6 hPa | 0 mm | - | 0 W/m² | - |
| 1777961718 | 18.33° C | 26% | 1012.1 hPa | 0 mm | - | 0 W/m² | - |
| 1777956316 | 19.44° C | 24% | 1011.8 hPa | 0 mm | - | 0 W/m² | - |
| 1777953937 | 20° C | 24% | 1011.7 hPa | 0 mm | - | 0 W/m² | - |
| 1777951517 | 20.56° C | 23% | 1011.3 hPa | 0 mm | - | 0 W/m² | - |
| 1777949117 | 21.11° C | 22% | 1010.9 hPa | 0 mm | - | 0 W/m² | - |
| 1777948518 | 21.11° C | 22% | 1010.8 hPa | 0 mm | - | 0 W/m² | - |
| 1777942516 | 23.33° C | 19% | 1010 hPa | 0 mm | - | 43 W/m² | - |
| 1777934115 | 23.89° C | 14% | 1010.4 hPa | 0 mm | - | 292 W/m² | - |
| 1777931715 | 24.44° C | 14% | 1010.9 hPa | 0 mm | - | 342 W/m² | - |
| 1777931136 | 24.44° C | 15% | 1010.9 hPa | 0 mm | - | 398 W/m² | - |
| 1777928736 | 25° C | 15% | 1011.5 hPa | 0 mm | - | 794 W/m² | - |
| 1777921518 | 21.67° C | 22% | 1013.7 hPa | 0 mm | - | 776 W/m² | - |
* Rain latest hour (hover to see other rain measurements)
** Current wind speed in m/s (hover to see current wind gust speed)